createdAt,value
2022-10-05T00:01:52.906Z,7.90
2022-10-05T00:04:22.385Z,7.25
2022-10-05T00:07:03.018Z,7.95
2022-10-05T00:11:57.551Z,7.00
2022-10-05T00:14:30.493Z,8.00
2022-10-05T00:16:57.861Z,8.57
2022-10-05T00:19:34.674Z,7.57
2022-10-05T00:22:11.199Z,6.93
2022-10-05T00:24:38.081Z,7.15
2022-10-05T00:27:19.151Z,7.40
2022-10-05T00:29:47.136Z,7.75
2022-10-05T00:32:14.321Z,7.60
2022-10-05T00:34:41.973Z,7.43
2022-10-05T00:37:09.384Z,7.10
2022-10-05T00:39:38.603Z,7.82
2022-10-05T00:42:24.174Z,6.72
2022-10-05T00:45:13.923Z,6.78
2022-10-05T00:47:54.596Z,7.35
2022-10-05T00:50:24.747Z,6.75
2022-10-05T00:53:12.720Z,6.57
2022-10-05T00:55:49.371Z,8.38
2022-10-05T00:58:54.051Z,7.72
2022-10-05T01:01:47.983Z,7.97
2022-10-05T01:04:26.237Z,7.70
2022-10-05T01:06:59.855Z,8.43
2022-10-05T01:09:37.262Z,8.82
2022-10-05T01:12:20.386Z,8.18
2022-10-05T01:15:05.912Z,7.90
2022-10-05T01:17:36.057Z,7.97
2022-10-05T01:20:21.291Z,8.17
2022-10-05T01:23:12.642Z,8.30
2022-10-05T01:26:17.172Z,7.72
2022-10-05T01:28:49.626Z,8.02
2022-10-05T01:31:25.511Z,8.55
2022-10-05T01:34:01.964Z,7.85
2022-10-05T01:36:40.302Z,9.00
2022-10-05T01:39:29.159Z,9.55
2022-10-05T01:41:58.749Z,8.38
2022-10-05T01:44:31.226Z,8.10
2022-10-05T01:47:08.016Z,8.63
2022-10-05T01:50:00.633Z,8.68
2022-10-05T01:53:08.328Z,8.07
2022-10-05T01:55:47.006Z,7.93
2022-10-05T01:58:36.048Z,8.98
2022-10-05T02:01:15.745Z,7.87
2022-10-05T02:03:50.210Z,9.20
2022-10-05T02:06:26.299Z,8.90
2022-10-05T02:09:26.651Z,8.85
2022-10-05T02:12:07.066Z,8.20
2022-10-05T02:14:40.983Z,7.90
2022-10-05T02:17:16.597Z,8.23
2022-10-05T02:19:50.511Z,8.75
2022-10-05T02:22:39.896Z,9.18
2022-10-05T02:25:11.358Z,8.40
2022-10-05T02:27:43.900Z,8.77
2022-10-05T02:30:16.226Z,9.25
2022-10-05T02:32:51.709Z,7.60
2022-10-05T02:35:20.672Z,8.45
2022-10-05T02:38:01.407Z,9.15
2022-10-05T02:40:41.447Z,9.18
2022-10-05T02:43:42.171Z,8.93
2022-10-05T02:46:19.624Z,10.20
2022-10-05T02:48:52.966Z,8.82
2022-10-05T02:51:45.690Z,8.25
2022-10-05T02:54:20.677Z,7.72
2022-10-05T02:56:59.688Z,7.18
2022-10-05T02:59:31.284Z,7.47
2022-10-05T03:02:07.958Z,7.32
2022-10-05T03:04:54.138Z,7.93
2022-10-05T03:07:30.673Z,8.07
2022-10-05T03:10:06.715Z,7.18
2022-10-05T03:12:45.454Z,7.65
2022-10-05T03:15:36.137Z,8.40
2022-10-05T03:18:28.565Z,9.52
2022-10-05T03:21:36.009Z,9.15
2022-10-05T03:24:40.394Z,7.82
2022-10-05T03:27:18.658Z,7.43
2022-10-05T03:29:54.220Z,7.18
2022-10-05T03:32:50.008Z,7.30
2022-10-05T03:35:51.193Z,7.45
2022-10-05T03:39:04.232Z,8.30
2022-10-05T03:41:41.852Z,8.10
2022-10-05T03:44:24.618Z,7.93
2022-10-05T03:47:05.639Z,7.97
2022-10-05T03:49:46.164Z,8.35
2022-10-05T03:52:18.970Z,8.63
2022-10-05T03:54:50.027Z,7.62
2022-10-05T03:57:22.149Z,7.80
2022-10-05T04:00:00.763Z,9.18
2022-10-05T04:02:31.422Z,9.00
2022-10-05T04:05:03.930Z,8.43
2022-10-05T04:07:38.114Z,8.30
2022-10-05T04:10:12.414Z,8.20
2022-10-05T04:12:43.782Z,8.68
2022-10-05T04:15:26.256Z,8.57
2022-10-05T04:18:01.068Z,8.65
2022-10-05T04:21:04.316Z,8.00
2022-10-05T04:23:57.676Z,8.30
2022-10-05T04:26:50.673Z,9.00
2022-10-05T04:29:38.582Z,9.27
2022-10-05T04:32:23.910Z,8.95
2022-10-05T04:35:03.336Z,8.55
2022-10-05T04:37:52.194Z,8.98
2022-10-05T04:40:28.006Z,8.95
2022-10-05T04:43:21.630Z,9.93
2022-10-05T04:45:56.245Z,9.52
2022-10-05T04:48:41.938Z,13.73
2022-10-05T04:51:18.823Z,11.45
2022-10-05T04:54:05.970Z,10.63
2022-10-05T04:56:36.847Z,8.82
2022-10-05T04:59:35.482Z,8.07
2022-10-05T05:02:44.118Z,9.13
2022-10-05T05:05:29.603Z,7.12
2022-10-05T05:08:06.890Z,10.07
2022-10-05T05:10:46.127Z,9.90
2022-10-05T05:13:33.868Z,10.52
2022-10-05T05:16:16.282Z,9.93
2022-10-05T05:19:02.238Z,10.93
2022-10-05T05:21:58.927Z,11.88
2022-10-05T05:24:38.445Z,12.07
2022-10-05T05:27:40.318Z,12.18
2022-10-05T05:30:33.838Z,13.15
2022-10-05T05:33:08.134Z,14.68
2022-10-05T05:36:06.159Z,12.57
2022-10-05T05:38:39.946Z,11.18
2022-10-05T05:41:10.710Z,12.95
2022-10-05T05:46:44.733Z,9.13
2022-10-05T05:49:24.189Z,9.85
2022-10-05T05:52:06.122Z,8.77
2022-10-05T05:54:46.702Z,10.18
2022-10-05T05:57:23.538Z,10.60
2022-10-05T06:00:00.773Z,9.77
2022-10-05T06:02:35.291Z,9.25
2022-10-05T06:05:30.639Z,9.95
2022-10-05T06:08:01.930Z,9.60
2022-10-05T06:10:38.530Z,9.30
2022-10-05T06:13:11.647Z,7.93
2022-10-05T06:15:42.661Z,7.15
2022-10-05T06:18:12.266Z,7.90
2022-10-05T06:21:00.132Z,8.77
2022-10-05T06:23:38.524Z,7.97
2022-10-05T06:26:15.406Z,8.75
2022-10-05T06:28:43.011Z,8.95
2022-10-05T06:31:29.604Z,8.35
2022-10-05T06:34:34.218Z,8.57
2022-10-05T06:37:07.241Z,8.05
2022-10-05T06:40:05.784Z,7.78
2022-10-05T06:43:03.050Z,7.03
2022-10-05T06:45:53.224Z,7.93
2022-10-05T06:48:35.887Z,7.87
2022-10-05T06:51:27.174Z,8.10
2022-10-05T06:53:57.795Z,7.62
2022-10-05T06:56:41.122Z,7.72
2022-10-05T06:59:38.888Z,7.72
2022-10-05T07:02:12.445Z,6.60
2022-10-05T07:04:52.495Z,6.62
2022-10-05T07:07:31.611Z,7.45
2022-10-05T07:10:33.846Z,8.13
2022-10-05T07:13:19.554Z,8.00
2022-10-05T07:15:54.971Z,8.98
2022-10-05T07:18:44.200Z,7.70
2022-10-05T07:21:32.880Z,8.20
2022-10-05T07:24:29.336Z,8.10
2022-10-05T07:27:21.989Z,8.45
2022-10-05T07:29:59.401Z,7.40
2022-10-05T07:32:47.302Z,11.07
2022-10-05T07:35:44.017Z,10.38
2022-10-05T07:38:31.009Z,9.45
2022-10-05T07:41:48.280Z,9.32
2022-10-05T07:44:25.924Z,7.82
2022-10-05T07:47:00.796Z,8.35
2022-10-05T07:49:44.538Z,8.27
2022-10-05T07:52:32.389Z,8.25
2022-10-05T07:55:20.595Z,7.70
2022-10-05T07:58:09.323Z,8.85
2022-10-05T08:00:54.802Z,9.30
2022-10-05T08:03:47.962Z,9.25
2022-10-05T08:06:26.120Z,8.48
2022-10-05T08:08:57.755Z,8.65
2022-10-05T08:11:31.438Z,9.90
2022-10-05T08:14:24.579Z,8.55
2022-10-05T08:16:52.958Z,8.38
2022-10-05T08:19:26.274Z,10.55
2022-10-05T08:21:58.726Z,10.13
2022-10-05T08:24:41.246Z,8.73
2022-10-05T08:27:11.041Z,8.80
2022-10-05T08:29:42.006Z,8.23
2022-10-05T08:32:18.887Z,12.02
2022-10-05T08:34:51.249Z,7.82
2022-10-05T08:37:24.282Z,8.07
2022-10-05T08:42:56.994Z,8.48
2022-10-05T08:45:46.628Z,9.02
2022-10-05T08:48:22.986Z,10.00
2022-10-05T08:51:15.598Z,8.07
2022-10-05T08:54:17.891Z,7.70
2022-10-05T08:57:00.510Z,7.80
2022-10-05T08:59:46.229Z,8.30
2022-10-05T09:02:39.199Z,8.63
2022-10-05T09:05:20.963Z,8.80
2022-10-05T09:08:03.750Z,9.40
2022-10-05T09:11:00.026Z,9.40
2022-10-05T09:14:06.747Z,9.18
2022-10-05T09:17:10.916Z,8.35
2022-10-05T09:20:02.883Z,14.85
2022-10-05T09:23:05.926Z,50.42
2022-10-05T09:25:58.866Z,15.43
2022-10-05T09:28:35.243Z,6.00
2022-10-05T09:31:38.861Z,6.62
2022-10-05T09:34:25.960Z,6.70
2022-10-05T09:37:11.573Z,8.02
2022-10-05T09:40:09.739Z,6.95
2022-10-05T09:42:58.825Z,6.62
2022-10-05T09:45:56.851Z,5.75
2022-10-05T09:49:01.627Z,5.20
2022-10-05T09:51:54.907Z,5.20
2022-10-05T09:55:01.263Z,5.30
2022-10-05T09:57:55.554Z,5.50
2022-10-05T10:00:32.627Z,3.90
2022-10-05T10:03:18.569Z,6.10
2022-10-05T10:05:57.022Z,5.70
2022-10-05T10:08:42.922Z,4.15
2022-10-05T10:11:32.466Z,4.85
2022-10-05T10:14:17.530Z,4.15
2022-10-05T10:17:00.754Z,5.15
2022-10-05T10:19:55.564Z,5.30
2022-10-05T10:22:32.250Z,6.15
2022-10-05T10:25:45.866Z,7.22
2022-10-05T10:28:34.572Z,7.30
2022-10-05T10:31:16.689Z,5.20
2022-10-05T10:34:23.119Z,5.80
2022-10-05T10:37:10.904Z,6.53
2022-10-05T10:40:08.817Z,8.40
2022-10-05T10:43:04.226Z,6.00
2022-10-05T10:45:50.687Z,4.50
2022-10-05T10:48:49.175Z,4.78
2022-10-05T10:51:45.166Z,5.57
2022-10-05T10:54:23.806Z,8.75
2022-10-05T10:57:00.525Z,6.15
2022-10-05T10:59:55.461Z,6.12
2022-10-05T11:02:56.468Z,6.87
2022-10-05T11:05:47.919Z,4.85
2022-10-05T11:08:18.790Z,9.23
2022-10-05T11:11:11.657Z,6.70
2022-10-05T11:14:15.611Z,4.60
2022-10-05T11:16:51.870Z,5.20
2022-10-05T11:19:46.545Z,4.57
2022-10-05T11:22:47.243Z,5.25
2022-10-05T11:25:27.708Z,6.85
2022-10-05T11:28:15.512Z,13.52
2022-10-05T11:31:00.729Z,6.28
2022-10-05T11:33:58.629Z,3.95
2022-10-05T11:36:40.763Z,10.52
2022-10-05T11:39:38.140Z,7.12
2022-10-05T11:42:23.372Z,8.23
2022-10-05T11:45:08.618Z,4.80
2022-10-05T11:47:46.603Z,4.47
2022-10-05T11:50:27.563Z,3.37
2022-10-05T11:52:59.864Z,2.75
2022-10-05T11:55:57.660Z,3.67
2022-10-05T11:58:32.496Z,3.92
2022-10-05T12:01:34.655Z,4.85
2022-10-05T12:04:43.106Z,3.03
2022-10-05T12:07:49.083Z,2.92
2022-10-05T12:10:48.839Z,2.60
2022-10-05T12:13:30.886Z,3.40
2022-10-05T12:16:10.381Z,3.47
2022-10-05T12:18:54.085Z,2.30
2022-10-05T12:21:44.779Z,3.03
2022-10-05T12:24:36.907Z,3.05
2022-10-05T12:27:15.899Z,4.90
2022-10-05T12:30:11.877Z,9.73
2022-10-05T12:33:02.457Z,3.20
2022-10-05T12:38:42.220Z,3.97
2022-10-05T12:41:22.544Z,4.10
2022-10-05T12:44:12.273Z,3.45
2022-10-05T12:46:51.383Z,2.23
2022-10-05T12:49:29.740Z,3.17
2022-10-05T12:51:58.758Z,1.95
2022-10-05T12:54:41.342Z,3.10
2022-10-05T12:57:26.923Z,2.20
2022-10-05T12:59:58.762Z,1.87
2022-10-05T13:02:45.571Z,2.67
2022-10-05T13:05:26.296Z,2.55
2022-10-05T13:07:58.150Z,2.30
2022-10-05T13:10:34.122Z,3.37
2022-10-05T13:13:21.403Z,1.92
2022-10-05T13:16:01.819Z,2.00
2022-10-05T13:19:07.669Z,1.87
2022-10-05T13:21:49.938Z,5.15
2022-10-05T13:24:22.233Z,4.80
2022-10-05T13:26:55.017Z,2.97
2022-10-05T13:29:54.339Z,2.42
2022-10-05T13:32:34.555Z,3.10
2022-10-05T13:35:22.914Z,2.83
2022-10-05T13:38:01.729Z,2.30
2022-10-05T13:40:35.957Z,2.62
2022-10-05T13:43:07.755Z,2.30
2022-10-05T13:45:43.457Z,2.00
2022-10-05T13:48:19.908Z,2.47
2022-10-05T13:51:02.084Z,2.50
2022-10-05T13:53:41.365Z,2.40
2022-10-05T13:56:26.162Z,2.45
2022-10-05T13:59:17.399Z,7.72
2022-10-05T14:01:51.112Z,4.00
2022-10-05T14:04:22.015Z,5.35
2022-10-05T14:06:49.869Z,3.72
2022-10-05T14:09:19.483Z,2.87
2022-10-05T14:11:51.926Z,3.58
2022-10-05T14:14:25.621Z,3.62
2022-10-05T14:17:05.819Z,2.50
2022-10-05T14:19:41.332Z,2.58
2022-10-05T14:22:15.909Z,2.70
2022-10-05T14:25:01.972Z,2.83
2022-10-05T14:27:30.111Z,2.20
2022-10-05T14:30:01.529Z,4.15
2022-10-05T14:32:34.441Z,2.80
2022-10-05T14:35:10.681Z,2.62
2022-10-05T14:37:50.405Z,3.03
2022-10-05T14:40:26.805Z,2.80
2022-10-05T14:42:53.866Z,4.07
2022-10-05T14:45:24.978Z,4.25
2022-10-05T14:48:11.328Z,3.15
2022-10-05T14:50:59.266Z,3.20
2022-10-05T14:53:38.882Z,3.53
2022-10-05T14:56:24.701Z,7.15
2022-10-05T14:59:06.543Z,4.25
2022-10-05T15:01:36.616Z,6.20
2022-10-05T15:04:30.401Z,4.78
2022-10-05T15:07:38.911Z,4.40
2022-10-05T15:10:26.887Z,3.95
2022-10-05T15:12:55.194Z,4.60
2022-10-05T15:15:35.376Z,3.47
2022-10-05T15:18:06.946Z,4.68
2022-10-05T15:20:45.614Z,3.20
2022-10-05T15:23:31.578Z,4.25
2022-10-05T15:26:01.587Z,6.37
2022-10-05T15:28:42.454Z,8.68
2022-10-05T15:31:50.794Z,28.92
2022-10-05T15:34:22.438Z,9.68
2022-10-05T15:36:59.885Z,4.50
2022-10-05T15:39:52.642Z,6.25
2022-10-05T15:42:33.203Z,4.80
2022-10-05T15:45:13.099Z,4.65
2022-10-05T15:47:46.667Z,3.83
2022-10-05T15:50:22.550Z,3.90
2022-10-05T15:53:15.287Z,4.22
2022-10-05T15:56:05.941Z,4.97
2022-10-05T15:58:54.469Z,5.90
2022-10-05T16:01:33.810Z,5.05
2022-10-05T16:04:14.241Z,5.60
2022-10-05T16:07:05.897Z,5.28
2022-10-05T16:09:43.515Z,5.50
2022-10-05T16:12:29.154Z,5.25
2022-10-05T16:15:06.527Z,4.90
2022-10-05T16:17:57.752Z,5.75
2022-10-05T16:21:00.341Z,6.68
2022-10-05T16:23:41.857Z,6.60
2022-10-05T16:26:24.435Z,6.30
2022-10-05T16:29:13.268Z,6.20
2022-10-05T16:31:54.364Z,7.60
2022-10-05T16:34:41.143Z,7.90
2022-10-05T16:37:11.270Z,8.30
2022-10-05T16:39:56.826Z,7.37
2022-10-05T16:42:26.622Z,6.65
2022-10-05T16:45:00.054Z,6.93
2022-10-05T16:48:17.726Z,9.20
2022-10-05T16:51:08.231Z,7.28
2022-10-05T16:53:54.627Z,7.90
2022-10-05T16:56:25.263Z,7.65
2022-10-05T16:59:07.073Z,8.20
2022-10-05T17:01:44.672Z,8.60
2022-10-05T17:04:23.744Z,8.88
2022-10-05T17:07:20.001Z,9.77
2022-10-05T17:10:05.808Z,8.93
2022-10-05T17:12:39.993Z,10.70
2022-10-05T17:15:19.671Z,10.38
2022-10-05T17:17:58.480Z,8.77
2022-10-05T17:20:42.785Z,11.70
2022-10-05T17:23:37.861Z,9.30
2022-10-05T17:26:23.442Z,10.40
2022-10-05T17:29:24.942Z,11.38
2022-10-05T17:32:11.751Z,12.63
2022-10-05T17:35:04.739Z,12.57
2022-10-05T17:37:39.011Z,13.62
2022-10-05T17:40:34.605Z,11.80
2022-10-05T17:43:16.956Z,11.10
2022-10-05T17:45:43.698Z,10.75
2022-10-05T17:48:12.574Z,11.32
2022-10-05T17:51:07.754Z,12.07
2022-10-05T17:54:05.130Z,15.25
2022-10-05T17:56:55.447Z,13.27
2022-10-05T18:02:36.893Z,13.62
2022-10-05T18:05:04.535Z,14.23
2022-10-05T18:07:35.867Z,11.75
2022-10-05T18:10:15.416Z,13.95
2022-10-05T18:13:11.912Z,17.92
2022-10-05T18:15:44.910Z,18.45
2022-10-05T18:18:43.241Z,17.65
2022-10-05T18:21:18.270Z,13.75
2022-10-05T18:24:18.263Z,16.67
2022-10-05T18:27:00.381Z,14.05
2022-10-05T18:30:08.752Z,14.52
2022-10-05T18:32:58.972Z,13.23
2022-10-05T18:35:38.061Z,15.57
2022-10-05T18:38:28.217Z,16.85
2022-10-05T18:44:06.356Z,14.85
2022-10-05T18:47:09.132Z,15.52
2022-10-05T18:50:01.076Z,11.95
2022-10-05T18:52:49.487Z,13.25
2022-10-05T18:55:54.136Z,12.68
2022-10-05T18:58:30.631Z,11.80
2022-10-05T19:01:16.993Z,12.05
2022-10-05T19:03:50.052Z,10.40
2022-10-05T19:06:31.021Z,12.45
2022-10-05T19:09:27.221Z,9.13
2022-10-05T19:12:15.983Z,14.10
2022-10-05T19:15:07.182Z,11.40
2022-10-05T19:18:11.275Z,12.37
2022-10-05T19:20:54.062Z,12.40
2022-10-05T19:23:39.958Z,10.10
2022-10-05T19:26:34.517Z,10.13
2022-10-05T19:29:27.117Z,11.32
2022-10-05T19:32:42.320Z,10.52
2022-10-05T19:35:24.263Z,13.43
2022-10-05T19:41:12.704Z,11.52
2022-10-05T19:46:30.670Z,13.38
2022-10-05T19:48:57.904Z,12.50
2022-10-05T19:51:28.735Z,13.98
2022-10-05T19:54:02.100Z,14.85
2022-10-05T19:56:33.666Z,13.88
2022-10-05T19:59:17.485Z,14.80
2022-10-05T20:01:49.738Z,14.90
2022-10-05T20:04:43.531Z,14.65
2022-10-05T20:07:21.464Z,15.07
2022-10-05T20:09:58.082Z,15.48
2022-10-05T20:12:47.174Z,16.02
2022-10-05T20:15:37.945Z,16.10
2022-10-05T20:19:01.157Z,14.87
2022-10-05T20:21:41.602Z,15.68
2022-10-05T20:24:09.052Z,16.70
2022-10-05T20:27:05.552Z,15.93
2022-10-05T20:29:51.256Z,16.37
2022-10-05T20:32:36.754Z,14.82
2022-10-05T20:35:22.947Z,13.38
2022-10-05T20:38:08.243Z,15.27
2022-10-05T20:40:53.645Z,12.93
2022-10-05T20:43:39.446Z,13.32
2022-10-05T20:46:24.913Z,12.48
2022-10-05T20:48:53.898Z,10.43
2022-10-05T20:51:20.963Z,11.70
2022-10-05T20:53:47.792Z,12.15
2022-10-05T20:56:14.904Z,12.20
2022-10-05T20:58:41.751Z,13.00
2022-10-05T21:01:23.390Z,13.77
2022-10-05T21:03:50.660Z,11.75
2022-10-05T21:06:26.260Z,11.63
2022-10-05T21:08:54.238Z,10.55
2022-10-05T21:11:21.423Z,11.50
2022-10-05T21:13:49.353Z,12.57
2022-10-05T21:16:18.528Z,12.18
2022-10-05T21:18:47.087Z,11.90
2022-10-05T21:21:17.368Z,13.38
2022-10-05T21:23:45.414Z,10.88
2022-10-05T21:26:12.580Z,12.65
2022-10-05T21:28:39.754Z,14.68
2022-10-05T21:31:07.826Z,13.48
2022-10-05T21:33:36.835Z,14.82
2022-10-05T21:36:03.790Z,18.50
2022-10-05T21:38:31.083Z,17.62
2022-10-05T21:40:58.103Z,16.83
2022-10-05T21:43:25.333Z,14.20
2022-10-05T21:45:54.192Z,12.98
2022-10-05T21:48:21.406Z,12.48
2022-10-05T21:50:48.363Z,12.75
2022-10-05T21:53:17.187Z,13.73
2022-10-05T21:55:45.378Z,10.77
2022-10-05T21:58:12.481Z,12.57
2022-10-05T22:00:41.147Z,10.80
2022-10-05T22:03:08.813Z,9.68
2022-10-05T22:05:36.523Z,11.00
2022-10-05T22:08:04.548Z,10.57
2022-10-05T22:10:32.883Z,9.30
2022-10-05T22:13:01.560Z,10.25
2022-10-05T22:15:31.441Z,11.70
2022-10-05T22:17:59.672Z,12.98
2022-10-05T22:20:26.895Z,11.88
2022-10-05T22:22:54.014Z,12.20
2022-10-05T22:25:21.663Z,11.77
2022-10-05T22:27:49.374Z,11.30
2022-10-05T22:30:16.477Z,10.15
2022-10-05T22:32:44.454Z,9.98
2022-10-05T22:35:11.932Z,11.93
2022-10-05T22:37:38.940Z,14.40
2022-10-05T22:40:07.656Z,14.20
2022-10-05T22:42:34.704Z,13.90
2022-10-05T22:45:01.563Z,13.13
2022-10-05T22:47:28.687Z,13.85
2022-10-05T22:49:55.531Z,15.07
2022-10-05T22:52:22.390Z,16.15
2022-10-05T22:54:49.494Z,17.73
2022-10-05T22:57:16.359Z,15.32
2022-10-05T22:59:43.462Z,15.95
2022-10-05T23:02:10.863Z,12.15
2022-10-05T23:04:37.768Z,10.70
2022-10-05T23:07:05.182Z,9.48
2022-10-05T23:09:32.414Z,9.82
2022-10-05T23:11:59.258Z,9.45
2022-10-05T23:14:26.168Z,9.70
2022-10-05T23:16:53.366Z,9.63
2022-10-05T23:19:20.722Z,10.18
2022-10-05T23:21:47.566Z,9.30
2022-10-05T23:24:14.846Z,10.48
2022-10-05T23:26:41.688Z,9.43
2022-10-05T23:29:09.543Z,10.13
2022-10-05T23:31:36.937Z,8.93
2022-10-05T23:34:03.837Z,9.60
2022-10-05T23:36:33.496Z,9.23
2022-10-05T23:39:00.612Z,8.73
2022-10-05T23:41:27.496Z,10.13
2022-10-05T23:43:57.216Z,8.95
2022-10-05T23:46:24.491Z,9.88
2022-10-05T23:48:51.434Z,8.52
2022-10-05T23:51:18.643Z,8.13
2022-10-05T23:53:45.755Z,9.27
2022-10-05T23:56:12.969Z,8.45
2022-10-05T23:58:40.847Z,8.38
